sensor_id;sensor_type;location;lat;lon;timestamp;temperature;humidity
60033;DHT22;45905;50.570;10.428;2023-04-01T00:00:53;8.60;99.90
60033;DHT22;45905;50.570;10.428;2023-04-01T00:03:23;8.60;99.90
60033;DHT22;45905;50.570;10.428;2023-04-01T00:05:51;8.60;99.90
60033;DHT22;45905;50.570;10.428;2023-04-01T00:08:19;8.60;99.90
60033;DHT22;45905;50.570;10.428;2023-04-01T00:10:47;8.60;99.90
60033;DHT22;45905;50.570;10.428;2023-04-01T00:13:14;8.60;99.90
60033;DHT22;45905;50.570;10.428;2023-04-01T00:15:42;8.50;99.90
60033;DHT22;45905;50.570;10.428;2023-04-01T00:18:09;8.50;99.90
60033;DHT22;45905;50.570;10.428;2023-04-01T00:20:38;8.60;99.90
60033;DHT22;45905;50.570;10.428;2023-04-01T00:23:05;8.50;99.90
60033;DHT22;45905;50.570;10.428;2023-04-01T00:25:32;8.50;99.90
60033;DHT22;45905;50.570;10.428;2023-04-01T00:28:00;8.50;99.90
60033;DHT22;45905;50.570;10.428;2023-04-01T00:30:27;8.50;99.90
60033;DHT22;45905;50.570;10.428;2023-04-01T00:32:54;8.40;99.90
60033;DHT22;45905;50.570;10.428;2023-04-01T00:35:21;8.40;99.90
60033;DHT22;45905;50.570;10.428;2023-04-01T00:37:49;8.40;99.90
60033;DHT22;45905;50.570;10.428;2023-04-01T00:40:28;8.40;99.90
60033;DHT22;45905;50.570;10.428;2023-04-01T00:42:58;8.40;99.90
60033;DHT22;45905;50.570;10.428;2023-04-01T00:45:39;8.40;99.90
60033;DHT22;45905;50.570;10.428;2023-04-01T00:51:04;8.30;99.90
60033;DHT22;45905;50.570;10.428;2023-04-01T00:53:39;8.40;99.90
60033;DHT22;45905;50.570;10.428;2023-04-01T00:56:18;8.40;99.90
60033;DHT22;45905;50.570;10.428;2023-04-01T00:58:58;8.30;99.90
60033;DHT22;45905;50.570;10.428;2023-04-01T01:01:29;8.30;99.90
60033;DHT22;45905;50.570;10.428;2023-04-01T01:03:57;8.30;99.90
60033;DHT22;45905;50.570;10.428;2023-04-01T01:06:56;8.30;99.90
60033;DHT22;45905;50.570;10.428;2023-04-01T01:15:49;8.30;99.90
60033;DHT22;45905;50.570;10.428;2023-04-01T01:19:08;8.20;99.90
60033;DHT22;45905;50.570;10.428;2023-04-01T01:21:39;8.20;99.90
60033;DHT22;45905;50.570;10.428;2023-04-01T01:27:11;8.20;99.90
60033;DHT22;45905;50.570;10.428;2023-04-01T01:29:59;8.20;99.90
60033;DHT22;45905;50.570;10.428;2023-04-01T01:33:10;8.20;99.90
60033;DHT22;45905;50.570;10.428;2023-04-01T01:36:05;8.20;99.90
60033;DHT22;45905;50.570;10.428;2023-04-01T01:38:36;8.20;99.90
60033;DHT22;45905;50.570;10.428;2023-04-01T01:41:06;8.10;99.90
60033;DHT22;45905;50.570;10.428;2023-04-01T01:43:41;8.10;99.90
60033;DHT22;45905;50.570;10.428;2023-04-01T01:46:16;8.10;99.90
60033;DHT22;45905;50.570;10.428;2023-04-01T01:48:47;8.10;99.90
60033;DHT22;45905;50.570;10.428;2023-04-01T01:51:19;8.10;99.90
60033;DHT22;45905;50.570;10.428;2023-04-01T01:53:48;8.10;99.90
60033;DHT22;45905;50.570;10.428;2023-04-01T01:56:18;8.00;99.90
60033;DHT22;45905;50.570;10.428;2023-04-01T01:58:52;8.00;99.90
60033;DHT22;45905;50.570;10.428;2023-04-01T02:01:28;8.00;99.90
60033;DHT22;45905;50.570;10.428;2023-04-01T02:04:06;8.10;99.90
60033;DHT22;45905;50.570;10.428;2023-04-01T02:06:39;8.10;99.90
60033;DHT22;45905;50.570;10.428;2023-04-01T02:09:11;8.10;99.90
60033;DHT22;45905;50.570;10.428;2023-04-01T02:11:52;8.00;99.90
60033;DHT22;45905;50.570;10.428;2023-04-01T02:17:02;8.00;99.90
60033;DHT22;45905;50.570;10.428;2023-04-01T02:19:45;8.00;99.90
60033;DHT22;45905;50.570;10.428;2023-04-01T02:22:21;8.00;99.90
60033;DHT22;45905;50.570;10.428;2023-04-01T02:24:54;8.00;99.90
60033;DHT22;45905;50.570;10.428;2023-04-01T02:27:28;8.00;99.90
60033;DHT22;45905;50.570;10.428;2023-04-01T02:29:57;8.00;99.90
60033;DHT22;45905;50.570;10.428;2023-04-01T02:32:25;8.00;99.90
60033;DHT22;45905;50.570;10.428;2023-04-01T02:34:54;8.00;99.90
60033;DHT22;45905;50.570;10.428;2023-04-01T02:37:23;8.00;99.90
60033;DHT22;45905;50.570;10.428;2023-04-01T02:39:50;8.00;99.90
60033;DHT22;45905;50.570;10.428;2023-04-01T02:42:17;8.00;99.90
60033;DHT22;45905;50.570;10.428;2023-04-01T02:44:44;8.00;99.90
60033;DHT22;45905;50.570;10.428;2023-04-01T02:47:11;8.00;99.90
60033;DHT22;45905;50.570;10.428;2023-04-01T02:49:39;8.00;99.90
60033;DHT22;45905;50.570;10.428;2023-04-01T02:52:06;8.00;99.90
60033;DHT22;45905;50.570;10.428;2023-04-01T02:54:34;8.00;99.90
60033;DHT22;45905;50.570;10.428;2023-04-01T02:57:01;8.00;99.90
60033;DHT22;45905;50.570;10.428;2023-04-01T02:59:28;8.00;99.90
60033;DHT22;45905;50.570;10.428;2023-04-01T03:01:55;8.00;99.90
60033;DHT22;45905;50.570;10.428;2023-04-01T03:04:22;8.00;99.90
60033;DHT22;45905;50.570;10.428;2023-04-01T03:06:49;8.00;99.90
60033;DHT22;45905;50.570;10.428;2023-04-01T03:09:17;8.00;99.90
60033;DHT22;45905;50.570;10.428;2023-04-01T03:11:45;7.90;99.90
60033;DHT22;45905;50.570;10.428;2023-04-01T03:14:12;7.90;99.90
60033;DHT22;45905;50.570;10.428;2023-04-01T03:16:39;7.90;99.90
60033;DHT22;45905;50.570;10.428;2023-04-01T03:19:06;7.90;99.90
60033;DHT22;45905;50.570;10.428;2023-04-01T03:21:33;7.90;99.90
60033;DHT22;45905;50.570;10.428;2023-04-01T03:24:01;7.90;99.90
60033;DHT22;45905;50.570;10.428;2023-04-01T03:26:28;7.90;99.90
60033;DHT22;45905;50.570;10.428;2023-04-01T03:28:55;7.90;99.90
60033;DHT22;45905;50.570;10.428;2023-04-01T03:31:23;7.90;99.90
60033;DHT22;45905;50.570;10.428;2023-04-01T03:33:54;7.90;99.90
60033;DHT22;45905;50.570;10.428;2023-04-01T03:36:22;7.90;99.90
60033;DHT22;45905;50.570;10.428;2023-04-01T03:38:49;7.90;99.90
60033;DHT22;45905;50.570;10.428;2023-04-01T03:41:22;7.90;99.90
60033;DHT22;45905;50.570;10.428;2023-04-01T03:43:50;7.90;99.90
60033;DHT22;45905;50.570;10.428;2023-04-01T03:46:20;7.90;99.90
60033;DHT22;45905;50.570;10.428;2023-04-01T03:48:48;7.90;99.90
60033;DHT22;45905;50.570;10.428;2023-04-01T03:51:15;7.90;99.90
60033;DHT22;45905;50.570;10.428;2023-04-01T03:53:42;7.90;99.90
60033;DHT22;45905;50.570;10.428;2023-04-01T03:56:09;7.90;99.90
60033;DHT22;45905;50.570;10.428;2023-04-01T03:58:37;7.90;99.90
60033;DHT22;45905;50.570;10.428;2023-04-01T04:01:20;7.90;99.90
60033;DHT22;45905;50.570;10.428;2023-04-01T04:03:52;7.90;99.90
60033;DHT22;45905;50.570;10.428;2023-04-01T04:06:21;7.90;99.90
60033;DHT22;45905;50.570;10.428;2023-04-01T04:08:50;7.90;99.90
60033;DHT22;45905;50.570;10.428;2023-04-01T04:11:19;7.80;99.90
60033;DHT22;45905;50.570;10.428;2023-04-01T04:13:50;7.80;99.90
60033;DHT22;45905;50.570;10.428;2023-04-01T04:16:19;7.80;99.90
60033;DHT22;45905;50.570;10.428;2023-04-01T04:18:53;7.80;99.90
60033;DHT22;45905;50.570;10.428;2023-04-01T04:21:20;7.80;99.90
60033;DHT22;45905;50.570;10.428;2023-04-01T04:23:47;7.70;99.90
60033;DHT22;45905;50.570;10.428;2023-04-01T04:26:17;7.70;99.90
60033;DHT22;45905;50.570;10.428;2023-04-01T04:28:53;7.80;99.90
60033;DHT22;45905;50.570;10.428;2023-04-01T04:31:24;7.80;99.90
60033;DHT22;45905;50.570;10.428;2023-04-01T04:33:55;7.80;99.90
60033;DHT22;45905;50.570;10.428;2023-04-01T04:36:22;7.80;99.90
60033;DHT22;45905;50.570;10.428;2023-04-01T04:38:51;7.80;99.90
60033;DHT22;45905;50.570;10.428;2023-04-01T04:41:19;7.80;99.90
60033;DHT22;45905;50.570;10.428;2023-04-01T04:43:54;7.80;99.90
60033;DHT22;45905;50.570;10.428;2023-04-01T04:46:24;7.80;99.90
60033;DHT22;45905;50.570;10.428;2023-04-01T04:49:08;7.70;99.90
60033;DHT22;45905;50.570;10.428;2023-04-01T04:51:35;7.70;99.90
60033;DHT22;45905;50.570;10.428;2023-04-01T04:54:03;7.70;99.90
60033;DHT22;45905;50.570;10.428;2023-04-01T04:56:44;7.70;99.90
60033;DHT22;45905;50.570;10.428;2023-04-01T04:59:11;7.70;99.90
60033;DHT22;45905;50.570;10.428;2023-04-01T05:01:45;7.70;99.90
60033;DHT22;45905;50.570;10.428;2023-04-01T05:04:13;7.70;99.90
60033;DHT22;45905;50.570;10.428;2023-04-01T05:06:40;7.70;99.90
60033;DHT22;45905;50.570;10.428;2023-04-01T05:09:09;7.70;99.90
60033;DHT22;45905;50.570;10.428;2023-04-01T05:11:36;7.70;99.90
60033;DHT22;45905;50.570;10.428;2023-04-01T05:14:03;7.70;99.90
60033;DHT22;45905;50.570;10.428;2023-04-01T05:16:31;7.70;99.90
60033;DHT22;45905;50.570;10.428;2023-04-01T05:18:59;7.70;99.90
60033;DHT22;45905;50.570;10.428;2023-04-01T05:21:26;7.70;99.90
60033;DHT22;45905;50.570;10.428;2023-04-01T05:23:55;7.70;99.90
60033;DHT22;45905;50.570;10.428;2023-04-01T05:26:24;7.70;99.90
60033;DHT22;45905;50.570;10.428;2023-04-01T05:28:51;7.70;99.90
60033;DHT22;45905;50.570;10.428;2023-04-01T05:31:18;7.70;99.90
60033;DHT22;45905;50.570;10.428;2023-04-01T05:33:47;7.70;99.90
60033;DHT22;45905;50.570;10.428;2023-04-01T05:36:15;7.70;99.90
60033;DHT22;45905;50.570;10.428;2023-04-01T05:38:43;7.70;99.90
60033;DHT22;45905;50.570;10.428;2023-04-01T05:41:13;7.70;99.90
60033;DHT22;45905;50.570;10.428;2023-04-01T05:43:44;7.70;99.90
60033;DHT22;45905;50.570;10.428;2023-04-01T05:46:30;7.70;99.90
60033;DHT22;45905;50.570;10.428;2023-04-01T05:49:06;7.70;99.90
60033;DHT22;45905;50.570;10.428;2023-04-01T05:51:34;7.70;99.90
60033;DHT22;45905;50.570;10.428;2023-04-01T05:54:01;7.70;99.90
60033;DHT22;45905;50.570;10.428;2023-04-01T05:56:28;7.70;99.90
60033;DHT22;45905;50.570;10.428;2023-04-01T05:58:55;7.70;99.90
60033;DHT22;45905;50.570;10.428;2023-04-01T06:01:23;7.80;99.90
60033;DHT22;45905;50.570;10.428;2023-04-01T06:03:51;7.70;99.90
60033;DHT22;45905;50.570;10.428;2023-04-01T06:06:26;7.70;99.90
60033;DHT22;45905;50.570;10.428;2023-04-01T06:09:14;7.80;99.90
60033;DHT22;45905;50.570;10.428;2023-04-01T06:15:06;7.80;99.90
60033;DHT22;45905;50.570;10.428;2023-04-01T06:32:44;7.80;99.90
60033;DHT22;45905;50.570;10.428;2023-04-01T06:46:45;7.90;99.90
60033;DHT22;45905;50.570;10.428;2023-04-01T06:53:24;7.90;99.90
60033;DHT22;45905;50.570;10.428;2023-04-01T06:56:19;7.90;99.90
60033;DHT22;45905;50.570;10.428;2023-04-01T06:59:05;7.90;99.90
60033;DHT22;45905;50.570;10.428;2023-04-01T07:01:52;7.90;99.90
60033;DHT22;45905;50.570;10.428;2023-04-01T07:04:43;8.00;99.90
60033;DHT22;45905;50.570;10.428;2023-04-01T07:10:20;7.90;99.90
60033;DHT22;45905;50.570;10.428;2023-04-01T07:13:18;7.90;99.90
60033;DHT22;45905;50.570;10.428;2023-04-01T07:19:45;7.90;99.90
60033;DHT22;45905;50.570;10.428;2023-04-01T07:22:29;8.00;99.90
60033;DHT22;45905;50.570;10.428;2023-04-01T07:25:20;8.00;99.90
60033;DHT22;45905;50.570;10.428;2023-04-01T07:28:14;8.00;99.90
60033;DHT22;45905;50.570;10.428;2023-04-01T07:33:44;8.00;99.90
60033;DHT22;45905;50.570;10.428;2023-04-01T07:51:28;8.10;99.90
60033;DHT22;45905;50.570;10.428;2023-04-01T07:54:24;8.10;99.90
60033;DHT22;45905;50.570;10.428;2023-04-01T07:57:19;8.10;99.90
60033;DHT22;45905;50.570;10.428;2023-04-01T08:10:02;8.20;99.90
60033;DHT22;45905;50.570;10.428;2023-04-01T08:12:56;8.20;99.90
60033;DHT22;45905;50.570;10.428;2023-04-01T08:21:55;8.30;99.90
60033;DHT22;45905;50.570;10.428;2023-04-01T08:24:36;8.30;99.90
60033;DHT22;45905;50.570;10.428;2023-04-01T08:27:39;8.30;99.90
60033;DHT22;45905;50.570;10.428;2023-04-01T08:33:16;8.40;99.90
60033;DHT22;45905;50.570;10.428;2023-04-01T08:41:48;8.40;99.90
60033;DHT22;45905;50.570;10.428;2023-04-01T08:48:23;8.50;99.90
60033;DHT22;45905;50.570;10.428;2023-04-01T08:54:48;8.60;99.90
60033;DHT22;45905;50.570;10.428;2023-04-01T09:10:24;8.60;99.90
60033;DHT22;45905;50.570;10.428;2023-04-01T09:21:36;8.70;99.90
60033;DHT22;45905;50.570;10.428;2023-04-01T09:37:18;8.80;99.90
60033;DHT22;45905;50.570;10.428;2023-04-01T09:46:11;8.80;99.90
60033;DHT22;45905;50.570;10.428;2023-04-01T09:55:45;8.80;99.90
60033;DHT22;45905;50.570;10.428;2023-04-01T10:01:36;8.90;99.90
60033;DHT22;45905;50.570;10.428;2023-04-01T10:21:56;9.20;99.90
60033;DHT22;45905;50.570;10.428;2023-04-01T10:27:34;9.30;99.90
60033;DHT22;45905;50.570;10.428;2023-04-01T10:40:36;9.30;99.90
60033;DHT22;45905;50.570;10.428;2023-04-01T10:43:55;9.30;99.90
60033;DHT22;45905;50.570;10.428;2023-04-01T11:13:08;9.40;99.90
60033;DHT22;45905;50.570;10.428;2023-04-01T11:22:30;9.50;99.90
60033;DHT22;45905;50.570;10.428;2023-04-01T11:31:58;9.50;99.90
60033;DHT22;45905;50.570;10.428;2023-04-01T11:35:07;9.50;99.90
60033;DHT22;45905;50.570;10.428;2023-04-01T11:44:20;9.50;99.90
60033;DHT22;45905;50.570;10.428;2023-04-01T11:47:13;9.50;99.90
60033;DHT22;45905;50.570;10.428;2023-04-01T11:50:14;9.60;99.90
60033;DHT22;45905;50.570;10.428;2023-04-01T11:56:00;9.70;99.90
60033;DHT22;45905;50.570;10.428;2023-04-01T11:58:36;9.80;99.90
60033;DHT22;45905;50.570;10.428;2023-04-01T12:07:17;9.90;99.90
60033;DHT22;45905;50.570;10.428;2023-04-01T12:31:34;10.00;99.90
60033;DHT22;45905;50.570;10.428;2023-04-01T12:43:28;10.10;99.90
60033;DHT22;45905;50.570;10.428;2023-04-01T12:55:52;10.30;99.90
60033;DHT22;45905;50.570;10.428;2023-04-01T12:58:50;10.20;99.90
60033;DHT22;45905;50.570;10.428;2023-04-01T13:01:52;10.20;99.90
60033;DHT22;45905;50.570;10.428;2023-04-01T13:11:07;10.20;99.90
60033;DHT22;45905;50.570;10.428;2023-04-01T13:23:09;10.20;99.90
60033;DHT22;45905;50.570;10.428;2023-04-01T13:26:02;10.20;99.90
60033;DHT22;45905;50.570;10.428;2023-04-01T13:32:26;10.20;99.90
60033;DHT22;45905;50.570;10.428;2023-04-01T13:43:35;10.30;99.90
60033;DHT22;45905;50.570;10.428;2023-04-01T14:03:44;10.40;99.90
60033;DHT22;45905;50.570;10.428;2023-04-01T14:06:34;10.40;99.90
60033;DHT22;45905;50.570;10.428;2023-04-01T14:09:30;10.30;99.90
60033;DHT22;45905;50.570;10.428;2023-04-01T14:27:17;10.20;99.90
60033;DHT22;45905;50.570;10.428;2023-04-01T14:42:10;10.20;99.90
60033;DHT22;45905;50.570;10.428;2023-04-01T14:50:46;10.20;99.90
60033;DHT22;45905;50.570;10.428;2023-04-01T14:55:57;10.20;99.90
60033;DHT22;45905;50.570;10.428;2023-04-01T14:58:47;10.20;99.90
60033;DHT22;45905;50.570;10.428;2023-04-01T15:05:10;10.20;99.90
60033;DHT22;45905;50.570;10.428;2023-04-01T15:17:02;10.10;99.90
60033;DHT22;45905;50.570;10.428;2023-04-01T15:28:47;10.10;99.90
60033;DHT22;45905;50.570;10.428;2023-04-01T15:31:44;10.10;99.90
60033;DHT22;45905;50.570;10.428;2023-04-01T15:43:40;10.10;99.90
60033;DHT22;45905;50.570;10.428;2023-04-01T15:52:34;10.00;99.90
60033;DHT22;45905;50.570;10.428;2023-04-01T15:58:01;10.10;99.90
60033;DHT22;45905;50.570;10.428;2023-04-01T16:01:05;10.10;99.90
60033;DHT22;45905;50.570;10.428;2023-04-01T16:12:41;10.00;99.90
60033;DHT22;45905;50.570;10.428;2023-04-01T16:15:33;10.10;99.90
60033;DHT22;45905;50.570;10.428;2023-04-01T16:27:37;10.00;99.90
60033;DHT22;45905;50.570;10.428;2023-04-01T16:41:51;9.90;99.90
60033;DHT22;45905;50.570;10.428;2023-04-01T16:44:24;9.90;99.90
60033;DHT22;45905;50.570;10.428;2023-04-01T16:46:59;9.90;99.90
60033;DHT22;45905;50.570;10.428;2023-04-01T16:49:44;9.90;99.90
60033;DHT22;45905;50.570;10.428;2023-04-01T16:52:42;9.90;99.90
60033;DHT22;45905;50.570;10.428;2023-04-01T16:55:55;9.90;99.90
60033;DHT22;45905;50.570;10.428;2023-04-01T16:59:24;10.00;99.90
60033;DHT22;45905;50.570;10.428;2023-04-01T17:04:43;10.00;99.90
60033;DHT22;45905;50.570;10.428;2023-04-01T17:07:23;10.00;99.90
60033;DHT22;45905;50.570;10.428;2023-04-01T17:27:59;10.00;99.90
60033;DHT22;45905;50.570;10.428;2023-04-01T17:30:57;9.90;99.90
60033;DHT22;45905;50.570;10.428;2023-04-01T17:34:04;10.00;99.90
60033;DHT22;45905;50.570;10.428;2023-04-01T17:45:28;9.90;99.90
60033;DHT22;45905;50.570;10.428;2023-04-01T17:56:54;9.70;99.90
60033;DHT22;45905;50.570;10.428;2023-04-01T18:02:42;9.80;99.90
60033;DHT22;45905;50.570;10.428;2023-04-01T18:17:21;9.70;99.90
60033;DHT22;45905;50.570;10.428;2023-04-01T18:20:31;9.70;99.90
60033;DHT22;45905;50.570;10.428;2023-04-01T18:23:46;9.70;99.90
60033;DHT22;45905;50.570;10.428;2023-04-01T18:26:33;9.70;99.90
60033;DHT22;45905;50.570;10.428;2023-04-01T18:29:41;9.70;99.90
60033;DHT22;45905;50.570;10.428;2023-04-01T18:32:48;9.70;99.90
60033;DHT22;45905;50.570;10.428;2023-04-01T18:38:30;9.80;99.90
60033;DHT22;45905;50.570;10.428;2023-04-01T18:41:38;9.70;99.90
60033;DHT22;45905;50.570;10.428;2023-04-01T18:44:31;9.70;99.90
60033;DHT22;45905;50.570;10.428;2023-04-01T18:50:27;9.60;99.90
60033;DHT22;45905;50.570;10.428;2023-04-01T18:53:08;9.60;99.90
60033;DHT22;45905;50.570;10.428;2023-04-01T18:56:06;9.60;99.90
60033;DHT22;45905;50.570;10.428;2023-04-01T18:59:08;9.60;99.90
60033;DHT22;45905;50.570;10.428;2023-04-01T19:02:02;9.60;99.90
60033;DHT22;45905;50.570;10.428;2023-04-01T19:05:11;9.60;99.90
60033;DHT22;45905;50.570;10.428;2023-04-01T19:07:50;9.60;99.90
60033;DHT22;45905;50.570;10.428;2023-04-01T19:22:13;9.60;99.90
60033;DHT22;45905;50.570;10.428;2023-04-01T19:28:16;9.50;99.90
60033;DHT22;45905;50.570;10.428;2023-04-01T19:30:59;9.50;99.90
60033;DHT22;45905;50.570;10.428;2023-04-01T19:34:11;9.50;99.90
60033;DHT22;45905;50.570;10.428;2023-04-01T19:43:03;9.50;99.90
60033;DHT22;45905;50.570;10.428;2023-04-01T19:46:02;9.40;99.90
60033;DHT22;45905;50.570;10.428;2023-04-01T19:49:11;9.40;99.90
60033;DHT22;45905;50.570;10.428;2023-04-01T19:54:35;9.40;99.90
60033;DHT22;45905;50.570;10.428;2023-04-01T19:57:34;9.40;99.90
60033;DHT22;45905;50.570;10.428;2023-04-01T20:00:47;9.40;99.90
60033;DHT22;45905;50.570;10.428;2023-04-01T20:03:34;9.40;99.90
60033;DHT22;45905;50.570;10.428;2023-04-01T20:06:19;9.40;99.90
60033;DHT22;45905;50.570;10.428;2023-04-01T20:17:20;9.40;99.90
60033;DHT22;45905;50.570;10.428;2023-04-01T20:20:18;9.40;99.90
60033;DHT22;45905;50.570;10.428;2023-04-01T20:23:21;9.40;99.90
60033;DHT22;45905;50.570;10.428;2023-04-01T20:26:02;9.40;99.90
60033;DHT22;45905;50.570;10.428;2023-04-01T20:29:11;9.40;99.90
60033;DHT22;45905;50.570;10.428;2023-04-01T20:31:42;9.40;99.90
60033;DHT22;45905;50.570;10.428;2023-04-01T20:37:10;9.40;99.90
60033;DHT22;45905;50.570;10.428;2023-04-01T20:39:56;9.40;99.90
60033;DHT22;45905;50.570;10.428;2023-04-01T20:51:32;9.30;99.90
60033;DHT22;45905;50.570;10.428;2023-04-01T20:54:20;9.30;99.90
60033;DHT22;45905;50.570;10.428;2023-04-01T20:57:38;9.30;99.90
60033;DHT22;45905;50.570;10.428;2023-04-01T21:14:51;9.30;99.90
60033;DHT22;45905;50.570;10.428;2023-04-01T21:32:45;9.30;99.90
60033;DHT22;45905;50.570;10.428;2023-04-01T21:50:45;9.20;99.90
60033;DHT22;45905;50.570;10.428;2023-04-01T22:05:11;9.10;99.90
60033;DHT22;45905;50.570;10.428;2023-04-01T22:08:12;9.10;99.90
60033;DHT22;45905;50.570;10.428;2023-04-01T22:22:59;9.10;99.90
60033;DHT22;45905;50.570;10.428;2023-04-01T22:25:44;9.10;99.90
60033;DHT22;45905;50.570;10.428;2023-04-01T22:31:28;9.10;99.90
60033;DHT22;45905;50.570;10.428;2023-04-01T22:34:14;9.10;99.90
60033;DHT22;45905;50.570;10.428;2023-04-01T22:36:55;9.10;99.90
60033;DHT22;45905;50.570;10.428;2023-04-01T22:39:37;9.20;99.90
60033;DHT22;45905;50.570;10.428;2023-04-01T22:45:24;9.10;99.90
60033;DHT22;45905;50.570;10.428;2023-04-01T22:48:05;9.00;99.90
60033;DHT22;45905;50.570;10.428;2023-04-01T22:51:03;9.00;99.90
60033;DHT22;45905;50.570;10.428;2023-04-01T22:56:38;9.00;99.90
60033;DHT22;45905;50.570;10.428;2023-04-01T23:04:58;9.00;99.90
60033;DHT22;45905;50.570;10.428;2023-04-01T23:10:38;9.00;99.90
60033;DHT22;45905;50.570;10.428;2023-04-01T23:13:22;9.00;99.90
60033;DHT22;45905;50.570;10.428;2023-04-01T23:15:55;8.90;99.90
60033;DHT22;45905;50.570;10.428;2023-04-01T23:18:44;8.90;99.90
60033;DHT22;45905;50.570;10.428;2023-04-01T23:21:35;8.90;99.90
60033;DHT22;45905;50.570;10.428;2023-04-01T23:24:48;8.80;99.90
60033;DHT22;45905;50.570;10.428;2023-04-01T23:29:43;8.80;99.90
60033;DHT22;45905;50.570;10.428;2023-04-01T23:32:17;8.80;99.90
60033;DHT22;45905;50.570;10.428;2023-04-01T23:34:48;8.80;99.90
60033;DHT22;45905;50.570;10.428;2023-04-01T23:37:18;8.80;99.90
60033;DHT22;45905;50.570;10.428;2023-04-01T23:39:50;8.80;99.90
60033;DHT22;45905;50.570;10.428;2023-04-01T23:42:42;8.80;99.90
60033;DHT22;45905;50.570;10.428;2023-04-01T23:45:18;8.80;99.90
60033;DHT22;45905;50.570;10.428;2023-04-01T23:47:48;8.80;99.90
60033;DHT22;45905;50.570;10.428;2023-04-01T23:50:23;8.80;99.90
60033;DHT22;45905;50.570;10.428;2023-04-01T23:55:33;8.90;99.90
